Milford on Sea, United Kingdom
Current Conditions -  °F | °C
As of 5:50 PM on Friday 21 Nov 2014 (Local Time) from EGHH Reporting Station
Broken Clouds Broken Clouds  
Wind Chill: 11°   Ceiling: 1200
Heat Index: 11°   Visibility: 5mi
Dew Point: 10°   Wind: 7mph
Humidity: 94%   Direction: 130°SE
Pressure: 29.91"   Gusts: NA
Location:  50.73°N, 1.59°W
Report Text: EGHH 211750Z 13006KT 8000 FEW009 BKN012 11/10 Q1013
Loading
Personal Weather Stations






























Interactive Weather Map New forecast layout! Learn more

10-Day Weather Forecast

Advertisements
Track Severe Weather on mobile